sensor_id;sensor_type;location;lat;lon;timestamp;temperature;humidity
64012;DHT22;50211;52.768;12.124;2023-05-10T00:02:23;10.70;99.90
64012;DHT22;50211;52.768;12.124;2023-05-10T00:04:49;10.70;99.90
64012;DHT22;50211;52.768;12.124;2023-05-10T00:07:15;10.70;99.90
64012;DHT22;50211;52.768;12.124;2023-05-10T00:09:43;10.70;99.90
64012;DHT22;50211;52.768;12.124;2023-05-10T00:12:08;10.70;99.90
64012;DHT22;50211;52.768;12.124;2023-05-10T00:14:34;10.70;99.90
64012;DHT22;50211;52.768;12.124;2023-05-10T00:16:59;10.70;99.90
64012;DHT22;50211;52.768;12.124;2023-05-10T00:19:25;10.70;99.90
64012;DHT22;50211;52.768;12.124;2023-05-10T00:21:50;10.60;99.90
64012;DHT22;50211;52.768;12.124;2023-05-10T00:24:16;10.60;99.90
64012;DHT22;50211;52.768;12.124;2023-05-10T00:26:41;10.60;99.90
64012;DHT22;50211;52.768;12.124;2023-05-10T00:29:07;10.60;99.90
64012;DHT22;50211;52.768;12.124;2023-05-10T00:31:33;10.60;99.90
64012;DHT22;50211;52.768;12.124;2023-05-10T00:33:58;10.60;99.90
64012;DHT22;50211;52.768;12.124;2023-05-10T00:36:24;10.60;99.90
64012;DHT22;50211;52.768;12.124;2023-05-10T00:38:49;10.50;99.90
64012;DHT22;50211;52.768;12.124;2023-05-10T00:41:15;10.50;99.90
64012;DHT22;50211;52.768;12.124;2023-05-10T00:43:41;10.50;99.90
64012;DHT22;50211;52.768;12.124;2023-05-10T00:46:06;10.50;99.90
64012;DHT22;50211;52.768;12.124;2023-05-10T00:48:32;10.50;99.90
64012;DHT22;50211;52.768;12.124;2023-05-10T00:50:58;10.40;99.90
64012;DHT22;50211;52.768;12.124;2023-05-10T00:53:24;10.40;99.90
64012;DHT22;50211;52.768;12.124;2023-05-10T00:55:50;10.40;99.90
64012;DHT22;50211;52.768;12.124;2023-05-10T00:58:16;10.40;99.90
64012;DHT22;50211;52.768;12.124;2023-05-10T01:00:42;10.40;99.90
64012;DHT22;50211;52.768;12.124;2023-05-10T01:03:10;10.40;99.90
64012;DHT22;50211;52.768;12.124;2023-05-10T01:05:37;10.50;99.90
64012;DHT22;50211;52.768;12.124;2023-05-10T01:08:02;10.50;99.90
64012;DHT22;50211;52.768;12.124;2023-05-10T01:10:28;10.50;99.90
64012;DHT22;50211;52.768;12.124;2023-05-10T01:12:54;10.50;99.90
64012;DHT22;50211;52.768;12.124;2023-05-10T01:15:20;10.60;99.90
64012;DHT22;50211;52.768;12.124;2023-05-10T01:17:47;10.60;99.90
64012;DHT22;50211;52.768;12.124;2023-05-10T01:20:14;10.50;99.90
64012;DHT22;50211;52.768;12.124;2023-05-10T01:22:59;10.50;99.90
64012;DHT22;50211;52.768;12.124;2023-05-10T01:31:03;10.40;99.90
64012;DHT22;50211;52.768;12.124;2023-05-10T01:33:59;10.30;99.90
64012;DHT22;50211;52.768;12.124;2023-05-10T01:36:43;10.20;99.90
64012;DHT22;50211;52.768;12.124;2023-05-10T01:39:16;10.10;99.90
64012;DHT22;50211;52.768;12.124;2023-05-10T01:41:54;10.10;99.90
64012;DHT22;50211;52.768;12.124;2023-05-10T01:44:40;10.20;99.90
64012;DHT22;50211;52.768;12.124;2023-05-10T01:47:14;10.20;99.90
64012;DHT22;50211;52.768;12.124;2023-05-10T01:49:50;10.10;99.90
64012;DHT22;50211;52.768;12.124;2023-05-10T01:52:18;10.10;99.90
64012;DHT22;50211;52.768;12.124;2023-05-10T01:54:53;10.10;99.90
64012;DHT22;50211;52.768;12.124;2023-05-10T01:57:22;10.10;99.90
64012;DHT22;50211;52.768;12.124;2023-05-10T01:59:50;10.00;99.90
64012;DHT22;50211;52.768;12.124;2023-05-10T02:02:19;10.00;99.90
64012;DHT22;50211;52.768;12.124;2023-05-10T02:04:46;9.80;99.90
64012;DHT22;50211;52.768;12.124;2023-05-10T02:07:13;9.80;99.90
64012;DHT22;50211;52.768;12.124;2023-05-10T02:09:40;9.80;99.90
64012;DHT22;50211;52.768;12.124;2023-05-10T02:12:07;9.80;99.90
64012;DHT22;50211;52.768;12.124;2023-05-10T02:14:36;9.70;99.90
64012;DHT22;50211;52.768;12.124;2023-05-10T02:17:04;9.70;99.90
64012;DHT22;50211;52.768;12.124;2023-05-10T02:19:32;9.70;99.90
64012;DHT22;50211;52.768;12.124;2023-05-10T02:21:59;9.80;99.90
64012;DHT22;50211;52.768;12.124;2023-05-10T02:24:26;9.90;99.90
64012;DHT22;50211;52.768;12.124;2023-05-10T02:26:54;9.90;99.90
64012;DHT22;50211;52.768;12.124;2023-05-10T02:29:23;10.00;99.90
64012;DHT22;50211;52.768;12.124;2023-05-10T02:31:51;10.00;99.90
64012;DHT22;50211;52.768;12.124;2023-05-10T02:34:17;10.00;99.90
64012;DHT22;50211;52.768;12.124;2023-05-10T02:36:44;10.00;99.90
64012;DHT22;50211;52.768;12.124;2023-05-10T02:39:11;10.00;99.90
64012;DHT22;50211;52.768;12.124;2023-05-10T02:41:42;10.00;99.90
64012;DHT22;50211;52.768;12.124;2023-05-10T02:44:09;10.00;99.90
64012;DHT22;50211;52.768;12.124;2023-05-10T02:46:35;10.00;99.90
64012;DHT22;50211;52.768;12.124;2023-05-10T02:49:02;9.90;99.90
64012;DHT22;50211;52.768;12.124;2023-05-10T02:51:31;9.90;99.90
64012;DHT22;50211;52.768;12.124;2023-05-10T02:54:04;9.90;99.90
64012;DHT22;50211;52.768;12.124;2023-05-10T02:56:35;9.90;99.90
64012;DHT22;50211;52.768;12.124;2023-05-10T02:59:01;9.80;99.90
64012;DHT22;50211;52.768;12.124;2023-05-10T03:01:27;9.80;99.90
64012;DHT22;50211;52.768;12.124;2023-05-10T03:03:52;9.80;99.90
64012;DHT22;50211;52.768;12.124;2023-05-10T03:06:18;9.70;99.90
64012;DHT22;50211;52.768;12.124;2023-05-10T03:08:44;9.70;99.90
64012;DHT22;50211;52.768;12.124;2023-05-10T03:11:32;9.60;99.90
64012;DHT22;50211;52.768;12.124;2023-05-10T03:16:50;9.60;99.90
64012;DHT22;50211;52.768;12.124;2023-05-10T03:19:24;9.50;99.90
64012;DHT22;50211;52.768;12.124;2023-05-10T03:21:52;9.40;99.90
64012;DHT22;50211;52.768;12.124;2023-05-10T03:24:20;9.40;99.90
64012;DHT22;50211;52.768;12.124;2023-05-10T03:26:47;9.30;99.90
64012;DHT22;50211;52.768;12.124;2023-05-10T03:29:14;9.30;99.90
64012;DHT22;50211;52.768;12.124;2023-05-10T03:31:41;9.30;99.90
64012;DHT22;50211;52.768;12.124;2023-05-10T03:34:06;9.20;99.90
64012;DHT22;50211;52.768;12.124;2023-05-10T03:36:32;9.20;99.90
64012;DHT22;50211;52.768;12.124;2023-05-10T03:38:58;9.10;99.90
64012;DHT22;50211;52.768;12.124;2023-05-10T03:41:23;9.20;99.90
64012;DHT22;50211;52.768;12.124;2023-05-10T03:43:50;9.30;99.90
64012;DHT22;50211;52.768;12.124;2023-05-10T03:46:16;9.30;99.90
64012;DHT22;50211;52.768;12.124;2023-05-10T03:48:41;9.40;99.90
64012;DHT22;50211;52.768;12.124;2023-05-10T03:51:06;9.50;99.90
64012;DHT22;50211;52.768;12.124;2023-05-10T03:53:32;9.50;99.90
64012;DHT22;50211;52.768;12.124;2023-05-10T03:55:57;9.50;99.90
64012;DHT22;50211;52.768;12.124;2023-05-10T03:58:23;9.60;99.90
64012;DHT22;50211;52.768;12.124;2023-05-10T04:00:48;9.60;99.90
64012;DHT22;50211;52.768;12.124;2023-05-10T04:03:14;9.70;99.90
64012;DHT22;50211;52.768;12.124;2023-05-10T04:05:40;9.70;99.90
64012;DHT22;50211;52.768;12.124;2023-05-10T04:08:05;9.70;99.90
64012;DHT22;50211;52.768;12.124;2023-05-10T04:10:32;9.80;99.90
64012;DHT22;50211;52.768;12.124;2023-05-10T04:12:58;9.80;99.90
64012;DHT22;50211;52.768;12.124;2023-05-10T04:15:24;9.80;99.90
64012;DHT22;50211;52.768;12.124;2023-05-10T04:17:49;9.90;99.90
64012;DHT22;50211;52.768;12.124;2023-05-10T04:20:15;10.00;99.90
64012;DHT22;50211;52.768;12.124;2023-05-10T04:22:41;10.00;99.90
64012;DHT22;50211;52.768;12.124;2023-05-10T04:25:07;10.10;99.90
64012;DHT22;50211;52.768;12.124;2023-05-10T04:27:32;10.10;99.90
64012;DHT22;50211;52.768;12.124;2023-05-10T04:29:58;10.10;99.90
64012;DHT22;50211;52.768;12.124;2023-05-10T04:32:23;10.20;99.90
64012;DHT22;50211;52.768;12.124;2023-05-10T04:34:49;10.20;99.90
64012;DHT22;50211;52.768;12.124;2023-05-10T04:37:16;10.20;99.90
64012;DHT22;50211;52.768;12.124;2023-05-10T04:39:41;10.30;99.90
64012;DHT22;50211;52.768;12.124;2023-05-10T04:42:07;10.30;99.90
64012;DHT22;50211;52.768;12.124;2023-05-10T04:44:32;10.40;99.90
64012;DHT22;50211;52.768;12.124;2023-05-10T04:46:59;10.40;99.90
64012;DHT22;50211;52.768;12.124;2023-05-10T04:49:24;10.40;99.90
64012;DHT22;50211;52.768;12.124;2023-05-10T04:51:50;10.40;99.90
64012;DHT22;50211;52.768;12.124;2023-05-10T04:54:15;10.40;99.90
64012;DHT22;50211;52.768;12.124;2023-05-10T04:56:41;10.50;99.90
64012;DHT22;50211;52.768;12.124;2023-05-10T04:59:06;10.50;99.90
64012;DHT22;50211;52.768;12.124;2023-05-10T05:01:32;10.60;99.90
64012;DHT22;50211;52.768;12.124;2023-05-10T05:03:58;10.60;99.90
64012;DHT22;50211;52.768;12.124;2023-05-10T05:06:23;10.70;99.90
64012;DHT22;50211;52.768;12.124;2023-05-10T05:08:50;10.80;99.90
64012;DHT22;50211;52.768;12.124;2023-05-10T05:11:16;10.80;99.90
64012;DHT22;50211;52.768;12.124;2023-05-10T05:13:42;10.90;99.90
64012;DHT22;50211;52.768;12.124;2023-05-10T05:16:07;11.00;99.90
64012;DHT22;50211;52.768;12.124;2023-05-10T05:18:33;11.00;99.90
64012;DHT22;50211;52.768;12.124;2023-05-10T05:20:58;11.10;99.90
64012;DHT22;50211;52.768;12.124;2023-05-10T05:23:24;11.20;99.90
64012;DHT22;50211;52.768;12.124;2023-05-10T05:25:54;11.30;99.90
64012;DHT22;50211;52.768;12.124;2023-05-10T05:28:20;11.30;99.90
64012;DHT22;50211;52.768;12.124;2023-05-10T05:30:46;11.40;99.90
64012;DHT22;50211;52.768;12.124;2023-05-10T05:33:13;11.50;99.90
64012;DHT22;50211;52.768;12.124;2023-05-10T05:35:40;11.60;99.90
64012;DHT22;50211;52.768;12.124;2023-05-10T05:38:06;11.60;99.90
64012;DHT22;50211;52.768;12.124;2023-05-10T05:40:31;11.70;99.90
64012;DHT22;50211;52.768;12.124;2023-05-10T05:42:57;11.70;99.90
64012;DHT22;50211;52.768;12.124;2023-05-10T05:45:23;11.80;99.90
64012;DHT22;50211;52.768;12.124;2023-05-10T05:47:48;11.90;99.90
64012;DHT22;50211;52.768;12.124;2023-05-10T05:50:14;12.00;99.90
64012;DHT22;50211;52.768;12.124;2023-05-10T05:52:39;12.10;99.90
64012;DHT22;50211;52.768;12.124;2023-05-10T05:55:05;12.20;99.90
64012;DHT22;50211;52.768;12.124;2023-05-10T05:57:31;12.30;99.90
64012;DHT22;50211;52.768;12.124;2023-05-10T05:59:56;12.40;99.90
64012;DHT22;50211;52.768;12.124;2023-05-10T06:02:22;12.40;99.90
64012;DHT22;50211;52.768;12.124;2023-05-10T06:04:47;12.50;99.90
64012;DHT22;50211;52.768;12.124;2023-05-10T06:07:13;12.50;99.90
64012;DHT22;50211;52.768;12.124;2023-05-10T06:09:38;12.70;99.90
64012;DHT22;50211;52.768;12.124;2023-05-10T06:12:04;12.80;99.90
64012;DHT22;50211;52.768;12.124;2023-05-10T06:14:30;12.90;99.90
64012;DHT22;50211;52.768;12.124;2023-05-10T06:16:55;12.90;99.90
64012;DHT22;50211;52.768;12.124;2023-05-10T06:19:21;13.10;99.90
64012;DHT22;50211;52.768;12.124;2023-05-10T06:21:46;13.20;99.90
64012;DHT22;50211;52.768;12.124;2023-05-10T06:24:12;13.30;99.90
64012;DHT22;50211;52.768;12.124;2023-05-10T06:26:37;13.40;99.90
64012;DHT22;50211;52.768;12.124;2023-05-10T06:29:03;13.50;99.90
64012;DHT22;50211;52.768;12.124;2023-05-10T06:31:28;13.50;99.90
64012;DHT22;50211;52.768;12.124;2023-05-10T06:33:54;13.50;99.90
64012;DHT22;50211;52.768;12.124;2023-05-10T06:36:19;13.50;99.90
64012;DHT22;50211;52.768;12.124;2023-05-10T06:38:45;13.50;99.90
64012;DHT22;50211;52.768;12.124;2023-05-10T06:41:10;13.60;99.90
64012;DHT22;50211;52.768;12.124;2023-05-10T06:43:36;13.70;99.90
64012;DHT22;50211;52.768;12.124;2023-05-10T06:46:05;14.00;99.90
64012;DHT22;50211;52.768;12.124;2023-05-10T06:48:30;14.00;99.90
64012;DHT22;50211;52.768;12.124;2023-05-10T06:50:56;14.10;99.90
64012;DHT22;50211;52.768;12.124;2023-05-10T06:53:21;14.30;99.90
64012;DHT22;50211;52.768;12.124;2023-05-10T06:55:47;14.40;99.90
64012;DHT22;50211;52.768;12.124;2023-05-10T06:58:14;14.50;99.90
64012;DHT22;50211;52.768;12.124;2023-05-10T07:00:39;14.70;99.90
64012;DHT22;50211;52.768;12.124;2023-05-10T07:03:06;14.80;99.90
64012;DHT22;50211;52.768;12.124;2023-05-10T07:05:31;14.90;99.90
64012;DHT22;50211;52.768;12.124;2023-05-10T07:07:57;14.90;99.90
64012;DHT22;50211;52.768;12.124;2023-05-10T07:10:22;15.00;99.90
64012;DHT22;50211;52.768;12.124;2023-05-10T07:12:48;14.90;99.90
64012;DHT22;50211;52.768;12.124;2023-05-10T07:15:13;14.90;99.90
64012;DHT22;50211;52.768;12.124;2023-05-10T07:17:39;14.90;99.90
64012;DHT22;50211;52.768;12.124;2023-05-10T07:20:05;15.20;99.90
64012;DHT22;50211;52.768;12.124;2023-05-10T07:22:31;15.30;99.90
64012;DHT22;50211;52.768;12.124;2023-05-10T07:24:56;15.60;99.90
64012;DHT22;50211;52.768;12.124;2023-05-10T07:27:22;15.70;99.90
64012;DHT22;50211;52.768;12.124;2023-05-10T07:29:47;16.00;99.90
64012;DHT22;50211;52.768;12.124;2023-05-10T07:32:12;16.00;99.90
64012;DHT22;50211;52.768;12.124;2023-05-10T07:34:38;15.90;99.90
64012;DHT22;50211;52.768;12.124;2023-05-10T07:37:03;15.90;99.90
64012;DHT22;50211;52.768;12.124;2023-05-10T07:39:29;15.90;99.90
64012;DHT22;50211;52.768;12.124;2023-05-10T07:41:55;16.30;99.90
64012;DHT22;50211;52.768;12.124;2023-05-10T07:44:21;16.30;99.90
64012;DHT22;50211;52.768;12.124;2023-05-10T07:46:47;16.40;99.90
64012;DHT22;50211;52.768;12.124;2023-05-10T07:49:12;16.50;99.90
64012;DHT22;50211;52.768;12.124;2023-05-10T07:51:38;16.90;99.90
64012;DHT22;50211;52.768;12.124;2023-05-10T07:54:04;17.10;99.90
64012;DHT22;50211;52.768;12.124;2023-05-10T07:56:31;17.20;99.90
64012;DHT22;50211;52.768;12.124;2023-05-10T07:59:00;17.00;99.90
64012;DHT22;50211;52.768;12.124;2023-05-10T08:01:26;17.10;99.90
64012;DHT22;50211;52.768;12.124;2023-05-10T08:03:55;17.30;99.90
64012;DHT22;50211;52.768;12.124;2023-05-10T08:06:20;17.70;99.90
64012;DHT22;50211;52.768;12.124;2023-05-10T08:08:47;18.10;99.90
64012;DHT22;50211;52.768;12.124;2023-05-10T08:11:17;18.00;99.90
64012;DHT22;50211;52.768;12.124;2023-05-10T08:13:47;18.10;99.90
64012;DHT22;50211;52.768;12.124;2023-05-10T08:16:13;18.20;99.90
64012;DHT22;50211;52.768;12.124;2023-05-10T08:18:39;18.30;99.90
64012;DHT22;50211;52.768;12.124;2023-05-10T08:21:05;18.30;99.90
64012;DHT22;50211;52.768;12.124;2023-05-10T08:23:31;18.30;99.90
64012;DHT22;50211;52.768;12.124;2023-05-10T08:25:56;18.60;99.90
64012;DHT22;50211;52.768;12.124;2023-05-10T08:28:22;18.70;99.90
64012;DHT22;50211;52.768;12.124;2023-05-10T08:30:47;19.00;99.90
64012;DHT22;50211;52.768;12.124;2023-05-10T08:33:13;18.90;99.90
64012;DHT22;50211;52.768;12.124;2023-05-10T08:35:38;18.90;99.90
64012;DHT22;50211;52.768;12.124;2023-05-10T08:38:04;19.10;99.90
64012;DHT22;50211;52.768;12.124;2023-05-10T08:40:29;19.20;99.90
64012;DHT22;50211;52.768;12.124;2023-05-10T08:43:21;19.10;99.90
64012;DHT22;50211;52.768;12.124;2023-05-10T08:45:49;19.20;99.90
64012;DHT22;50211;52.768;12.124;2023-05-10T08:48:15;19.30;99.90
64012;DHT22;50211;52.768;12.124;2023-05-10T08:50:42;19.20;99.90
64012;DHT22;50211;52.768;12.124;2023-05-10T08:53:12;19.20;99.90
64012;DHT22;50211;52.768;12.124;2023-05-10T08:55:39;19.20;99.90
64012;DHT22;50211;52.768;12.124;2023-05-10T08:58:06;19.50;99.90
64012;DHT22;50211;52.768;12.124;2023-05-10T09:00:32;19.80;99.90
64012;DHT22;50211;52.768;12.124;2023-05-10T09:02:58;20.30;99.90
64012;DHT22;50211;52.768;12.124;2023-05-10T09:05:24;20.70;99.90
64012;DHT22;50211;52.768;12.124;2023-05-10T09:07:50;20.90;99.90
64012;DHT22;50211;52.768;12.124;2023-05-10T09:10:15;21.30;99.90
64012;DHT22;50211;52.768;12.124;2023-05-10T09:12:41;21.70;99.90
64012;DHT22;50211;52.768;12.124;2023-05-10T09:15:09;22.00;99.90
64012;DHT22;50211;52.768;12.124;2023-05-10T09:17:36;22.00;99.90
64012;DHT22;50211;52.768;12.124;2023-05-10T09:20:05;22.20;99.90
64012;DHT22;50211;52.768;12.124;2023-05-10T09:22:31;22.30;99.90
64012;DHT22;50211;52.768;12.124;2023-05-10T09:25:09;22.60;99.90
64012;DHT22;50211;52.768;12.124;2023-05-10T09:27:37;22.30;99.90
64012;DHT22;50211;52.768;12.124;2023-05-10T09:30:03;22.30;99.90
64012;DHT22;50211;52.768;12.124;2023-05-10T09:32:40;22.40;99.90
64012;DHT22;50211;52.768;12.124;2023-05-10T09:35:11;22.00;99.90
64012;DHT22;50211;52.768;12.124;2023-05-10T09:37:38;22.00;99.90
64012;DHT22;50211;52.768;12.124;2023-05-10T09:40:07;22.50;99.90
64012;DHT22;50211;52.768;12.124;2023-05-10T09:42:34;23.00;99.90
64012;DHT22;50211;52.768;12.124;2023-05-10T09:45:04;23.40;98.90
64012;DHT22;50211;52.768;12.124;2023-05-10T09:47:32;23.00;99.90
64012;DHT22;50211;52.768;12.124;2023-05-10T09:49:58;23.50;98.40
64012;DHT22;50211;52.768;12.124;2023-05-10T09:52:45;23.70;98.60
64012;DHT22;50211;52.768;12.124;2023-05-10T09:55:11;23.40;97.70
64012;DHT22;50211;52.768;12.124;2023-05-10T09:57:36;23.80;98.10
64012;DHT22;50211;52.768;12.124;2023-05-10T10:00:02;23.90;96.50
64012;DHT22;50211;52.768;12.124;2023-05-10T10:02:31;23.80;97.30
64012;DHT22;50211;52.768;12.124;2023-05-10T10:04:56;23.60;96.70
64012;DHT22;50211;52.768;12.124;2023-05-10T10:07:23;23.00;96.50
64012;DHT22;50211;52.768;12.124;2023-05-10T10:09:50;22.90;97.30
64012;DHT22;50211;52.768;12.124;2023-05-10T10:12:16;23.50;97.40
64012;DHT22;50211;52.768;12.124;2023-05-10T10:14:42;23.30;97.10
64012;DHT22;50211;52.768;12.124;2023-05-10T10:17:07;23.00;97.30
64012;DHT22;50211;52.768;12.124;2023-05-10T10:19:34;23.00;97.70
64012;DHT22;50211;52.768;12.124;2023-05-10T10:22:00;23.40;97.70
64012;DHT22;50211;52.768;12.124;2023-05-10T10:24:26;23.50;97.00
64012;DHT22;50211;52.768;12.124;2023-05-10T10:26:57;23.50;97.30
64012;DHT22;50211;52.768;12.124;2023-05-10T10:29:44;23.00;97.20
64012;DHT22;50211;52.768;12.124;2023-05-10T10:32:28;22.90;98.40
64012;DHT22;50211;52.768;12.124;2023-05-10T10:34:55;22.80;97.80
64012;DHT22;50211;52.768;12.124;2023-05-10T10:37:21;23.00;99.90
64012;DHT22;50211;52.768;12.124;2023-05-10T10:39:48;23.20;98.50
64012;DHT22;50211;52.768;12.124;2023-05-10T10:42:14;23.60;97.40
64012;DHT22;50211;52.768;12.124;2023-05-10T10:45:12;24.20;97.60
64012;DHT22;50211;52.768;12.124;2023-05-10T10:47:38;23.60;97.30
64012;DHT22;50211;52.768;12.124;2023-05-10T10:50:06;23.90;97.00
64012;DHT22;50211;52.768;12.124;2023-05-10T10:55:20;24.70;97.30
64012;DHT22;50211;52.768;12.124;2023-05-10T10:57:52;24.70;94.80
64012;DHT22;50211;52.768;12.124;2023-05-10T11:00:24;25.00;94.80
64012;DHT22;50211;52.768;12.124;2023-05-10T11:02:52;25.40;94.40
64012;DHT22;50211;52.768;12.124;2023-05-10T11:05:37;25.60;94.20
64012;DHT22;50211;52.768;12.124;2023-05-10T11:11:06;25.80;93.20
64012;DHT22;50211;52.768;12.124;2023-05-10T11:13:37;25.60;93.40
64012;DHT22;50211;52.768;12.124;2023-05-10T11:16:20;25.60;93.20
64012;DHT22;50211;52.768;12.124;2023-05-10T11:18:53;25.40;94.10
64012;DHT22;50211;52.768;12.124;2023-05-10T11:21:19;25.60;92.80
64012;DHT22;50211;52.768;12.124;2023-05-10T11:26:11;26.60;92.40
64012;DHT22;50211;52.768;12.124;2023-05-10T11:28:47;26.30;93.00
64012;DHT22;50211;52.768;12.124;2023-05-10T11:31:19;25.80;93.20
64012;DHT22;50211;52.768;12.124;2023-05-10T11:33:50;25.30;93.00
64012;DHT22;50211;52.768;12.124;2023-05-10T11:36:18;25.00;93.10
64012;DHT22;50211;52.768;12.124;2023-05-10T11:38:44;24.90;94.20
64012;DHT22;50211;52.768;12.124;2023-05-10T11:41:10;25.60;94.60
64012;DHT22;50211;52.768;12.124;2023-05-10T11:43:37;25.60;93.90
64012;DHT22;50211;52.768;12.124;2023-05-10T11:46:11;25.90;94.10
64012;DHT22;50211;52.768;12.124;2023-05-10T11:48:40;25.90;92.90
64012;DHT22;50211;52.768;12.124;2023-05-10T11:51:07;25.70;92.00
64012;DHT22;50211;52.768;12.124;2023-05-10T11:53:33;25.90;93.30
64012;DHT22;50211;52.768;12.124;2023-05-10T11:56:09;26.30;92.40
64012;DHT22;50211;52.768;12.124;2023-05-10T11:58:36;26.60;91.30
64012;DHT22;50211;52.768;12.124;2023-05-10T12:01:03;27.20;94.60
64012;DHT22;50211;52.768;12.124;2023-05-10T12:03:29;26.70;93.40
64012;DHT22;50211;52.768;12.124;2023-05-10T12:05:56;25.80;93.10
64012;DHT22;50211;52.768;12.124;2023-05-10T12:08:23;25.40;95.40
64012;DHT22;50211;52.768;12.124;2023-05-10T12:10:49;25.30;94.40
64012;DHT22;50211;52.768;12.124;2023-05-10T12:13:15;25.30;95.20
64012;DHT22;50211;52.768;12.124;2023-05-10T12:15:41;24.40;96.20
64012;DHT22;50211;52.768;12.124;2023-05-10T12:18:11;23.80;96.60
64012;DHT22;50211;52.768;12.124;2023-05-10T12:20:37;23.70;98.30
64012;DHT22;50211;52.768;12.124;2023-05-10T12:23:04;24.00;98.40
64012;DHT22;50211;52.768;12.124;2023-05-10T12:25:35;24.30;98.80
64012;DHT22;50211;52.768;12.124;2023-05-10T12:28:03;24.60;96.80
64012;DHT22;50211;52.768;12.124;2023-05-10T12:30:32;24.50;96.60
64012;DHT22;50211;52.768;12.124;2023-05-10T12:33:11;24.40;97.40
64012;DHT22;50211;52.768;12.124;2023-05-10T12:35:48;24.70;95.90
64012;DHT22;50211;52.768;12.124;2023-05-10T12:38:32;25.40;95.30
64012;DHT22;50211;52.768;12.124;2023-05-10T12:41:00;25.50;95.30
64012;DHT22;50211;52.768;12.124;2023-05-10T12:43:26;25.30;96.40
64012;DHT22;50211;52.768;12.124;2023-05-10T12:45:52;25.30;98.00
64012;DHT22;50211;52.768;12.124;2023-05-10T12:48:17;25.00;97.20
64012;DHT22;50211;52.768;12.124;2023-05-10T12:50:43;25.50;98.50
64012;DHT22;50211;52.768;12.124;2023-05-10T12:53:08;25.80;96.60
64012;DHT22;50211;52.768;12.124;2023-05-10T12:55:34;25.20;96.10
64012;DHT22;50211;52.768;12.124;2023-05-10T12:57:59;24.90;97.10
64012;DHT22;50211;52.768;12.124;2023-05-10T13:00:25;24.60;97.10
64012;DHT22;50211;52.768;12.124;2023-05-10T13:02:50;24.20;98.40
64012;DHT22;50211;52.768;12.124;2023-05-10T13:05:16;24.30;99.90
64012;DHT22;50211;52.768;12.124;2023-05-10T13:07:41;24.70;99.30
64012;DHT22;50211;52.768;12.124;2023-05-10T13:10:09;24.80;99.50
64012;DHT22;50211;52.768;12.124;2023-05-10T13:12:35;24.70;98.50
64012;DHT22;50211;52.768;12.124;2023-05-10T13:15:01;24.60;98.70
64012;DHT22;50211;52.768;12.124;2023-05-10T13:17:27;24.80;99.00
64012;DHT22;50211;52.768;12.124;2023-05-10T13:19:53;24.10;99.20
64012;DHT22;50211;52.768;12.124;2023-05-10T13:22:18;23.50;99.90
64012;DHT22;50211;52.768;12.124;2023-05-10T13:24:44;23.30;99.90
64012;DHT22;50211;52.768;12.124;2023-05-10T13:27:09;23.20;99.90
64012;DHT22;50211;52.768;12.124;2023-05-10T13:29:35;23.20;99.90
64012;DHT22;50211;52.768;12.124;2023-05-10T13:32:00;23.00;99.90
64012;DHT22;50211;52.768;12.124;2023-05-10T13:34:26;22.40;99.90
64012;DHT22;50211;52.768;12.124;2023-05-10T13:36:53;21.80;99.90
64012;DHT22;50211;52.768;12.124;2023-05-10T13:39:19;21.30;99.90
64012;DHT22;50211;52.768;12.124;2023-05-10T13:41:45;20.90;99.90
64012;DHT22;50211;52.768;12.124;2023-05-10T13:44:12;20.70;99.90
64012;DHT22;50211;52.768;12.124;2023-05-10T13:46:41;20.60;99.90
64012;DHT22;50211;52.768;12.124;2023-05-10T13:49:08;20.70;99.90
64012;DHT22;50211;52.768;12.124;2023-05-10T13:51:34;20.70;99.90
64012;DHT22;50211;52.768;12.124;2023-05-10T13:54:00;20.30;99.90
64012;DHT22;50211;52.768;12.124;2023-05-10T13:56:25;20.10;99.90
64012;DHT22;50211;52.768;12.124;2023-05-10T13:58:51;20.20;99.90
64012;DHT22;50211;52.768;12.124;2023-05-10T14:01:16;19.90;99.90
64012;DHT22;50211;52.768;12.124;2023-05-10T14:03:42;19.90;99.90
64012;DHT22;50211;52.768;12.124;2023-05-10T14:06:08;19.90;99.90
64012;DHT22;50211;52.768;12.124;2023-05-10T14:08:34;19.60;99.90
64012;DHT22;50211;52.768;12.124;2023-05-10T14:11:00;19.60;99.90
64012;DHT22;50211;52.768;12.124;2023-05-10T14:13:26;19.30;99.90
64012;DHT22;50211;52.768;12.124;2023-05-10T14:15:53;19.20;99.90
64012;DHT22;50211;52.768;12.124;2023-05-10T14:18:19;19.30;99.90
64012;DHT22;50211;52.768;12.124;2023-05-10T14:20:44;19.30;99.90
64012;DHT22;50211;52.768;12.124;2023-05-10T14:23:10;19.50;99.90
64012;DHT22;50211;52.768;12.124;2023-05-10T14:25:35;19.50;99.90
64012;DHT22;50211;52.768;12.124;2023-05-10T14:28:01;19.50;99.90
64012;DHT22;50211;52.768;12.124;2023-05-10T14:30:26;19.30;99.90
64012;DHT22;50211;52.768;12.124;2023-05-10T14:32:52;19.20;99.90
64012;DHT22;50211;52.768;12.124;2023-05-10T14:35:19;19.30;99.90
64012;DHT22;50211;52.768;12.124;2023-05-10T14:37:44;19.20;99.90
64012;DHT22;50211;52.768;12.124;2023-05-10T14:40:10;19.20;99.90
64012;DHT22;50211;52.768;12.124;2023-05-10T14:42:37;19.00;99.90
64012;DHT22;50211;52.768;12.124;2023-05-10T14:45:03;18.90;99.90
64012;DHT22;50211;52.768;12.124;2023-05-10T14:47:29;19.00;99.90
64012;DHT22;50211;52.768;12.124;2023-05-10T14:49:54;19.00;99.90
64012;DHT22;50211;52.768;12.124;2023-05-10T14:52:20;19.00;99.90
64012;DHT22;50211;52.768;12.124;2023-05-10T14:54:45;19.00;99.90
64012;DHT22;50211;52.768;12.124;2023-05-10T14:57:11;18.90;99.90
64012;DHT22;50211;52.768;12.124;2023-05-10T14:59:36;18.80;99.90
64012;DHT22;50211;52.768;12.124;2023-05-10T15:02:02;18.60;99.90
64012;DHT22;50211;52.768;12.124;2023-05-10T15:04:29;18.40;99.90
64012;DHT22;50211;52.768;12.124;2023-05-10T15:06:55;18.30;99.90
64012;DHT22;50211;52.768;12.124;2023-05-10T15:09:24;18.30;99.90
64012;DHT22;50211;52.768;12.124;2023-05-10T15:11:49;18.30;99.90
64012;DHT22;50211;52.768;12.124;2023-05-10T15:14:15;18.40;99.90
64012;DHT22;50211;52.768;12.124;2023-05-10T15:16:40;18.50;99.90
64012;DHT22;50211;52.768;12.124;2023-05-10T15:19:06;18.20;99.90
64012;DHT22;50211;52.768;12.124;2023-05-10T15:21:31;18.40;99.90
64012;DHT22;50211;52.768;12.124;2023-05-10T15:24:07;18.50;99.90
64012;DHT22;50211;52.768;12.124;2023-05-10T15:26:32;18.50;99.90
64012;DHT22;50211;52.768;12.124;2023-05-10T15:28:58;18.30;99.90
64012;DHT22;50211;52.768;12.124;2023-05-10T15:31:23;18.30;99.90
64012;DHT22;50211;52.768;12.124;2023-05-10T15:33:49;18.30;99.90
64012;DHT22;50211;52.768;12.124;2023-05-10T15:36:14;18.30;99.90